createdAt,value
2023-02-24T00:00:05.684Z,11.1
2023-02-24T00:02:33.946Z,9.8
2023-02-24T00:07:30.460Z,8.4
2023-02-24T00:09:58.718Z,9.7
2023-02-24T00:12:26.976Z,7.9
2023-02-24T00:14:55.232Z,7.9
2023-02-24T00:16:09.964Z,9
2023-02-24T00:17:23.513Z,8.3
2023-02-24T00:19:51.765Z,10
2023-02-24T00:22:20.022Z,10.5
2023-02-24T00:24:48.282Z,12.7
2023-02-24T00:27:16.543Z,12.9
2023-02-24T00:29:44.798Z,10.9
2023-02-24T00:32:13.055Z,9
2023-02-24T00:34:41.308Z,9.6
2023-02-24T00:39:37.827Z,7.5
2023-02-24T00:40:52.555Z,11
2023-02-24T00:42:06.106Z,11.6
2023-02-24T00:44:34.357Z,8
2023-02-24T00:47:02.614Z,8.8
2023-02-24T00:49:30.870Z,7.6
2023-02-24T00:51:59.128Z,13.7
2023-02-24T00:54:27.386Z,12.7
2023-02-24T00:56:55.652Z,10.3
2023-02-24T00:59:23.911Z,9.8
2023-02-24T01:01:52.159Z,11.9
2023-02-24T01:04:20.421Z,9.4
2023-02-24T01:05:35.154Z,10.4
2023-02-24T01:09:17.186Z,11.8
2023-02-24T01:11:45.442Z,9.7
2023-02-24T01:14:13.701Z,12.3
2023-02-24T01:16:41.954Z,9.2
2023-02-24T01:19:10.219Z,14.1
2023-02-24T01:21:38.478Z,11.5
2023-02-24T01:24:06.736Z,13.1
2023-02-24T01:26:34.990Z,9.8
2023-02-24T01:29:03.242Z,10.6
2023-02-24T01:30:17.984Z,10.6
2023-02-24T01:31:31.522Z,13
2023-02-24T01:33:59.780Z,13
2023-02-24T01:36:28.038Z,11.7
2023-02-24T01:41:24.558Z,11.3
2023-02-24T01:43:52.811Z,13.6
2023-02-24T01:46:21.075Z,10.5
2023-02-24T01:48:49.326Z,15.4
2023-02-24T01:51:17.582Z,11.5
2023-02-24T01:53:45.845Z,10.7
2023-02-24T01:55:00.575Z,12.5
2023-02-24T01:56:14.117Z,11.3
2023-02-24T01:58:42.375Z,14.8
2023-02-24T02:01:10.637Z,10
2023-02-24T02:03:38.897Z,9
2023-02-24T02:06:07.153Z,12.1
2023-02-24T02:08:35.410Z,9.9
2023-02-24T02:13:31.929Z,12.5
2023-02-24T02:16:00.186Z,11.9
2023-02-24T02:18:28.441Z,14
2023-02-24T02:19:43.174Z,14.1
2023-02-24T02:20:56.721Z,12.8
2023-02-24T02:23:24.976Z,14.2
2023-02-24T02:25:53.234Z,13.6
2023-02-24T02:28:21.491Z,8.8
2023-02-24T02:30:49.747Z,11.5
2023-02-24T02:33:18.002Z,13.8
2023-02-24T02:35:46.255Z,8.9
2023-02-24T02:38:14.519Z,9.3
2023-02-24T02:40:42.773Z,11.6
2023-02-24T02:44:25.766Z,12.1
2023-02-24T02:45:39.317Z,12.5
2023-02-24T02:48:07.566Z,9.1
2023-02-24T02:50:35.822Z,13.4
2023-02-24T02:53:04.084Z,10.1
2023-02-24T02:55:32.340Z,11.4
2023-02-24T02:58:00.600Z,9.5
2023-02-24T03:00:28.853Z,13.4
2023-02-24T03:02:57.109Z,11.9
2023-02-24T03:05:25.374Z,11.5
2023-02-24T03:07:53.632Z,9.2
2023-02-24T03:09:08.359Z,11.3
2023-02-24T03:10:21.907Z,10.8
2023-02-24T03:15:18.423Z,11.5
2023-02-24T03:17:46.680Z,7.8
2023-02-24T03:20:14.930Z,10.7
2023-02-24T03:22:43.194Z,8.6
2023-02-24T03:25:11.449Z,11.5
2023-02-24T03:27:39.706Z,10.4
2023-02-24T03:30:07.966Z,12
2023-02-24T03:32:36.223Z,11.8
2023-02-24T03:33:50.956Z,9.7
2023-02-24T03:35:04.498Z,11.7
2023-02-24T03:37:32.758Z,9.1
2023-02-24T03:40:01.011Z,9.2
2023-02-24T03:42:29.274Z,13
2023-02-24T03:47:25.785Z,7.5
2023-02-24T03:49:54.043Z,9.8
2023-02-24T03:52:22.295Z,12.7
2023-02-24T03:54:50.555Z,10.6
2023-02-24T03:57:18.816Z,12.8
2023-02-24T03:58:33.544Z,13.4
2023-02-24T03:59:47.089Z,9
2023-02-24T04:02:15.344Z,6.1
2023-02-24T04:04:43.601Z,12
2023-02-24T04:07:11.859Z,8.3
2023-02-24T04:09:40.117Z,10.6
2023-02-24T04:12:08.382Z,7.4
2023-02-24T04:14:36.631Z,10
2023-02-24T04:19:33.146Z,11.5
2023-02-24T04:22:01.405Z,9.2
2023-02-24T04:23:16.138Z,9.6
2023-02-24T04:24:29.690Z,9.4
2023-02-24T04:26:57.943Z,9.5
2023-02-24T04:29:26.203Z,9.1
2023-02-24T04:31:54.461Z,9.2
2023-02-24T04:34:22.713Z,12.5
2023-02-24T04:36:50.970Z,8.2
2023-02-24T04:39:19.231Z,6.8
2023-02-24T04:41:47.489Z,12.1
2023-02-24T04:44:15.749Z,9
2023-02-24T04:46:44.007Z,14.1
2023-02-24T04:49:12.258Z,11.3
2023-02-24T04:51:40.515Z,8.7
2023-02-24T04:54:08.774Z,13.2
2023-02-24T04:56:37.030Z,9.2
2023-02-24T04:59:05.292Z,10.6
2023-02-24T05:01:33.548Z,11
2023-02-24T05:04:01.810Z,8.6
2023-02-24T05:06:30.068Z,9.6
2023-02-24T05:08:58.319Z,7.5
2023-02-24T05:11:26.576Z,7.9
2023-02-24T05:12:41.329Z,9.7
2023-02-24T05:13:54.872Z,9.5
2023-02-24T05:16:23.133Z,8.9
2023-02-24T05:21:19.647Z,10.3
2023-02-24T05:23:47.908Z,12.1
2023-02-24T05:26:16.157Z,9.9
2023-02-24T05:28:44.421Z,12.6
2023-02-24T05:31:12.678Z,11.1
2023-02-24T05:33:40.938Z,9.4
2023-02-24T05:36:09.194Z,9.5
2023-02-24T05:37:23.921Z,10.3
2023-02-24T05:38:37.467Z,9.9
2023-02-24T05:41:05.722Z,11.8
2023-02-24T05:43:33.989Z,10.4
2023-02-24T05:46:02.238Z,7.7
2023-02-24T05:48:30.499Z,11.1
2023-02-24T05:53:27.013Z,12.2
2023-02-24T05:55:55.274Z,12
2023-02-24T05:58:23.528Z,12
2023-02-24T06:00:51.786Z,13.4
2023-02-24T06:02:06.518Z,9.9
2023-02-24T06:03:20.063Z,11.1
2023-02-24T06:05:48.326Z,7.4
2023-02-24T06:08:16.577Z,15
2023-02-24T06:10:44.842Z,8.6
2023-02-24T06:13:13.101Z,7.6
2023-02-24T06:15:41.353Z,9.9
2023-02-24T06:18:09.611Z,13.9
2023-02-24T06:20:37.866Z,12.6
2023-02-24T06:25:34.385Z,13.6
2023-02-24T06:26:49.113Z,10.9
2023-02-24T06:28:02.662Z,12.8
2023-02-24T06:30:30.920Z,10.6
2023-02-24T06:32:59.180Z,11.2
2023-02-24T06:35:27.434Z,9.3
2023-02-24T06:37:55.688Z,14.8
2023-02-24T06:40:23.946Z,10.2
2023-02-24T06:42:52.204Z,12.4
2023-02-24T06:45:20.464Z,12.5
2023-02-24T06:47:48.715Z,10.9
2023-02-24T06:50:16.977Z,11.3
2023-02-24T06:51:31.708Z,11.3
2023-02-24T06:55:13.738Z,13.5
2023-02-24T06:57:42.001Z,15.1
2023-02-24T07:00:10.261Z,14.3
2023-02-24T07:02:38.517Z,14.1
2023-02-24T07:05:06.766Z,13.3
2023-02-24T07:07:35.034Z,13.4
2023-02-24T07:10:03.286Z,13.9
2023-02-24T07:12:31.542Z,11.7
2023-02-24T07:14:59.803Z,13.6
2023-02-24T07:16:14.537Z,11.2
2023-02-24T07:17:28.078Z,11.2
2023-02-24T07:19:56.331Z,11.5
2023-02-24T07:22:24.595Z,13.6
2023-02-24T07:27:21.102Z,13.2
2023-02-24T07:29:49.360Z,13.7
2023-02-24T07:32:17.622Z,9.3
2023-02-24T07:34:45.879Z,13.9
2023-02-24T07:37:14.132Z,14.4
2023-02-24T07:39:42.394Z,11.7
2023-02-24T07:40:57.123Z,9.4
2023-02-24T07:42:10.673Z,7.8
2023-02-24T07:44:38.931Z,10.3
2023-02-24T07:47:07.188Z,7.9
2023-02-24T07:49:35.444Z,10.9
2023-02-24T07:52:03.694Z,8.2
2023-02-24T07:54:31.960Z,8.4
2023-02-24T07:59:28.475Z,7.6
2023-02-24T08:01:56.732Z,10.7
2023-02-24T08:04:24.980Z,10.2
2023-02-24T08:05:39.715Z,8.3
2023-02-24T08:06:53.265Z,8.7
2023-02-24T08:09:21.521Z,7.6
2023-02-24T08:11:49.779Z,11.7
2023-02-24T08:14:18.033Z,8.9
2023-02-24T08:16:46.289Z,7.7
2023-02-24T08:19:14.551Z,10.1
2023-02-24T08:21:42.808Z,7.8
2023-02-24T08:24:11.060Z,8.3
2023-02-24T08:26:39.316Z,9.9
2023-02-24T08:30:22.310Z,8.4
2023-02-24T08:31:35.847Z,8.3
2023-02-24T08:34:04.111Z,8.4
2023-02-24T08:36:32.367Z,6.3
2023-02-24T08:39:00.621Z,9.3
2023-02-24T08:41:28.884Z,8.3
2023-02-24T08:43:57.143Z,7.3
2023-02-24T08:46:25.392Z,6.7
2023-02-24T08:48:53.648Z,6.1
2023-02-24T08:51:21.910Z,9.7
2023-02-24T08:53:50.164Z,7.3
2023-02-24T08:55:04.902Z,9.8
2023-02-24T08:56:18.445Z,5.7
2023-02-24T09:01:14.957Z,10.9
2023-02-24T09:03:43.220Z,7.3
2023-02-24T09:06:11.470Z,5
2023-02-24T09:08:39.726Z,5.6
2023-02-24T09:11:07.991Z,6.8
2023-02-24T09:13:36.243Z,6.3
2023-02-24T09:16:04.504Z,12.3
2023-02-24T09:18:32.758Z,7.4
2023-02-24T09:19:47.490Z,6
2023-02-24T09:21:01.038Z,5.7
2023-02-24T09:23:29.296Z,6.8
2023-02-24T09:25:57.550Z,6.7
2023-02-24T09:28:25.810Z,7.6
2023-02-24T09:33:22.322Z,6.1
2023-02-24T09:35:50.580Z,7.9
2023-02-24T09:38:18.832Z,4.7
2023-02-24T09:40:47.092Z,6
2023-02-24T09:43:15.346Z,6.4
2023-02-24T09:44:30.082Z,7
2023-02-24T09:45:43.626Z,10.4
2023-02-24T09:48:11.882Z,4.6
2023-02-24T09:50:40.141Z,6.2
2023-02-24T09:53:08.403Z,6.8
2023-02-24T09:55:36.658Z,5.5
2023-02-24T09:58:04.911Z,4.8
2023-02-24T10:00:33.169Z,6.4
2023-02-24T10:05:29.689Z,6.1
2023-02-24T10:07:57.942Z,5.5
2023-02-24T10:09:12.674Z,8.6
2023-02-24T10:10:26.226Z,7
2023-02-24T10:12:54.478Z,5.5
2023-02-24T10:15:22.735Z,5.4
2023-02-24T10:17:50.991Z,5.9
2023-02-24T10:20:19.255Z,6.1
2023-02-24T10:22:47.503Z,6.4
2023-02-24T10:25:15.762Z,8.3
2023-02-24T10:27:44.019Z,5.5
2023-02-24T10:30:12.282Z,5.3
2023-02-24T10:32:40.540Z,7.1
2023-02-24T10:35:08.798Z,5.3
2023-02-24T10:37:37.053Z,6.3
2023-02-24T10:40:05.313Z,7.1
2023-02-24T10:42:33.574Z,7.2
2023-02-24T10:45:01.832Z,10
2023-02-24T10:47:30.088Z,5.7
2023-02-24T10:49:58.346Z,6.9
2023-02-24T10:52:26.595Z,8.8
2023-02-24T10:54:54.857Z,9.9
2023-02-24T10:57:23.115Z,7.6
2023-02-24T10:58:37.865Z,8
2023-02-24T10:59:51.420Z,7.6
2023-02-24T11:02:19.663Z,10
2023-02-24T11:07:16.182Z,8.6
2023-02-24T11:09:44.440Z,8.6
2023-02-24T11:12:12.699Z,8.1
2023-02-24T11:14:40.949Z,7.7
2023-02-24T11:17:09.206Z,10.3
2023-02-24T11:19:37.464Z,9.6
2023-02-24T11:22:05.724Z,14.8
2023-02-24T11:23:20.456Z,12.8
2023-02-24T11:24:34.006Z,15.1
2023-02-24T11:27:02.269Z,11.5
2023-02-24T11:29:30.514Z,13.7
2023-02-24T11:31:58.774Z,12.8
2023-02-24T11:34:27.030Z,14.8
2023-02-24T11:39:23.545Z,14.1
2023-02-24T11:41:51.798Z,14.6
2023-02-24T11:44:20.052Z,15.6
2023-02-24T11:46:48.311Z,16.6
2023-02-24T11:48:03.048Z,14.1
2023-02-24T11:49:16.617Z,16.2
2023-02-24T11:51:44.845Z,15
2023-02-24T11:54:13.099Z,14.7
2023-02-24T11:56:41.357Z,16.2
2023-02-24T11:59:09.621Z,13.2
2023-02-24T12:01:37.872Z,14.7
2023-02-24T12:04:06.130Z,12.7
2023-02-24T12:06:34.384Z,13.1
2023-02-24T12:11:30.900Z,14.8
2023-02-24T12:12:45.630Z,11.9
2023-02-24T12:13:59.172Z,16.3
2023-02-24T12:16:27.430Z,16.3
2023-02-24T12:18:55.694Z,18.8
2023-02-24T12:21:23.943Z,15.5
2023-02-24T12:23:52.201Z,19.7
2023-02-24T12:26:20.461Z,20
2023-02-24T12:28:48.722Z,18.6
2023-02-24T12:31:16.732Z,19.6
2023-02-24T12:33:44.984Z,24.5
2023-02-24T12:36:13.246Z,20.5
2023-02-24T12:37:27.974Z,26.5
2023-02-24T12:41:10.004Z,27.9
2023-02-24T12:43:38.260Z,23.7
2023-02-24T12:46:06.526Z,27.9
2023-02-24T12:48:34.783Z,25.6
2023-02-24T12:51:03.037Z,27.4
2023-02-24T12:53:31.288Z,31.5
2023-02-24T12:55:59.548Z,33.7
2023-02-24T12:58:27.802Z,32.8
2023-02-24T13:00:56.063Z,34
2023-02-24T13:02:10.795Z,36.4
2023-02-24T13:03:24.339Z,30.6
2023-02-24T13:05:52.599Z,31.8
2023-02-24T13:08:20.859Z,30.5
2023-02-24T13:13:17.375Z,34.2
2023-02-24T13:15:45.625Z,27.7
2023-02-24T13:18:13.887Z,33.8
2023-02-24T13:20:42.143Z,34.1
2023-02-24T13:23:10.395Z,33.4
2023-02-24T13:25:38.658Z,37.2
2023-02-24T13:26:53.386Z,39.3
2023-02-24T13:28:06.928Z,40.9
2023-02-24T13:30:35.191Z,34.9
2023-02-24T13:33:03.449Z,35.5
2023-02-24T13:35:31.702Z,37.6
2023-02-24T13:37:59.967Z,29.2
2023-02-24T13:40:28.220Z,25.3
2023-02-24T13:45:24.738Z,25.1
2023-02-24T13:47:52.996Z,24.6
2023-02-24T13:50:21.248Z,21.5
2023-02-24T13:51:35.986Z,19.6
2023-02-24T13:52:49.524Z,19.4
2023-02-24T13:55:17.785Z,22.3
2023-02-24T13:57:46.036Z,18.2
2023-02-24T14:00:14.293Z,19.7
2023-02-24T14:02:42.554Z,18.8
2023-02-24T14:05:10.812Z,20.2
2023-02-24T14:07:39.071Z,16.7
2023-02-24T14:10:07.329Z,14.9
2023-02-24T14:12:35.579Z,19.1
2023-02-24T14:16:18.573Z,17.5
2023-02-24T14:17:32.117Z,13.3
2023-02-24T14:20:00.375Z,15.9
2023-02-24T14:22:28.624Z,17.7
2023-02-24T14:24:56.886Z,16.9
2023-02-24T14:27:25.139Z,16.4
2023-02-24T14:29:53.405Z,16.4
2023-02-24T14:32:21.654Z,20.6
2023-02-24T14:34:49.916Z,16
2023-02-24T14:37:18.174Z,16.7
2023-02-24T14:39:46.434Z,17.9
2023-02-24T14:41:01.162Z,16.8
2023-02-24T14:42:14.703Z,12.8
2023-02-24T14:47:11.222Z,15.6
2023-02-24T14:49:39.476Z,15.8
2023-02-24T14:52:07.737Z,11.9
2023-02-24T14:54:35.992Z,11.7
2023-02-24T14:57:04.253Z,12.4
2023-02-24T14:59:32.503Z,10.7
2023-02-24T15:02:00.765Z,11.6
2023-02-24T15:04:29.017Z,11
2023-02-24T15:05:43.751Z,15.8
2023-02-24T15:06:57.303Z,10.6
2023-02-24T15:09:25.553Z,12.1
2023-02-24T15:11:53.815Z,10.2
2023-02-24T15:14:22.071Z,10.6
2023-02-24T15:19:18.580Z,8.4
2023-02-24T15:21:46.847Z,9.7
2023-02-24T15:24:15.098Z,11.6
2023-02-24T15:26:43.359Z,11.5
2023-02-24T15:29:11.614Z,7.1
2023-02-24T15:30:26.341Z,10.1
2023-02-24T15:31:39.891Z,13.8
2023-02-24T15:34:08.143Z,15.5
2023-02-24T15:36:36.401Z,10.4
2023-02-24T15:39:04.653Z,10.1
2023-02-24T15:41:32.911Z,12.7
2023-02-24T15:44:01.176Z,10.6
2023-02-24T15:46:29.424Z,14.1
2023-02-24T15:51:25.940Z,16.7
2023-02-24T15:53:54.202Z,14
2023-02-24T15:55:08.936Z,18.5
2023-02-24T15:56:22.478Z,18.6
2023-02-24T15:58:50.738Z,20.9
2023-02-24T16:01:18.986Z,15.9
2023-02-24T16:03:47.250Z,19.5
2023-02-24T16:06:15.505Z,17.9
2023-02-24T16:08:43.758Z,20.7
2023-02-24T16:11:12.021Z,17.5
2023-02-24T16:13:40.275Z,17.7
2023-02-24T16:16:08.529Z,21
2023-02-24T16:18:36.793Z,20.2
2023-02-24T16:21:05.050Z,20.2
2023-02-24T16:23:33.308Z,17.5
2023-02-24T16:26:01.559Z,17.1
2023-02-24T16:28:29.819Z,18.8
2023-02-24T16:30:58.071Z,17.2
2023-02-24T16:33:26.331Z,13
2023-02-24T16:35:54.591Z,23.2
2023-02-24T16:38:22.848Z,18.9
2023-02-24T16:40:51.103Z,18
2023-02-24T16:43:19.353Z,21.5
2023-02-24T16:44:34.108Z,23.6
2023-02-24T16:45:47.654Z,23.3
2023-02-24T16:48:15.907Z,24.6
2023-02-24T16:53:12.425Z,24.1
2023-02-24T16:55:40.677Z,20.1
2023-02-24T16:58:08.937Z,23.5
2023-02-24T17:00:37.189Z,33.1
2023-02-24T17:03:05.453Z,28.1
2023-02-24T17:05:33.705Z,26.4
2023-02-24T17:08:01.963Z,22.2
2023-02-24T17:09:16.696Z,29.9
2023-02-24T17:10:30.246Z,25.8
2023-02-24T17:12:58.497Z,23.8
2023-02-24T17:15:26.754Z,22.5
2023-02-24T17:17:55.011Z,24.7
2023-02-24T17:20:23.272Z,21.5
2023-02-24T17:25:19.785Z,25
2023-02-24T17:27:48.039Z,25.8
2023-02-24T17:30:16.295Z,27.7
2023-02-24T17:32:44.553Z,26
2023-02-24T17:33:59.281Z,34.8
2023-02-24T17:35:12.831Z,26.8
2023-02-24T17:37:41.081Z,31.1
2023-02-24T17:40:09.344Z,30.2
2023-02-24T17:42:37.598Z,28.6
2023-02-24T17:45:05.852Z,31.8
2023-02-24T17:47:34.105Z,27.9
2023-02-24T17:50:02.362Z,34.2
2023-02-24T17:52:30.620Z,26.3
2023-02-24T17:57:27.133Z,35.2
2023-02-24T17:58:41.872Z,30.7
2023-02-24T17:59:55.412Z,33.2
2023-02-24T18:02:23.671Z,31.8
2023-02-24T18:04:51.931Z,31.2
2023-02-24T18:07:20.180Z,37.1
2023-02-24T18:09:48.445Z,34.7
2023-02-24T18:12:16.695Z,38.2
2023-02-24T18:14:44.958Z,37
2023-02-24T18:17:13.209Z,35.8
2023-02-24T18:19:41.463Z,32.2
2023-02-24T18:22:09.720Z,39.6
2023-02-24T18:23:24.457Z,35.7
2023-02-24T18:27:06.493Z,32.9
2023-02-24T18:29:34.748Z,34.6
2023-02-24T18:32:03.009Z,43.9
2023-02-24T18:34:31.261Z,32.8
2023-02-24T18:36:59.513Z,45.1
2023-02-24T18:39:27.777Z,38
2023-02-24T18:41:56.032Z,40.8
2023-02-24T18:44:24.285Z,40.4
2023-02-24T18:46:52.545Z,38
2023-02-24T18:48:07.278Z,31.5
2023-02-24T18:49:20.822Z,39.8
2023-02-24T18:51:49.074Z,41.8
2023-02-24T18:54:17.338Z,34.3
2023-02-24T18:59:13.850Z,37
2023-02-24T19:01:42.104Z,39
2023-02-24T19:04:10.369Z,35
2023-02-24T19:06:38.622Z,37.2
2023-02-24T19:09:06.874Z,35.9
2023-02-24T19:11:35.139Z,34.1
2023-02-24T19:12:49.872Z,34.4
2023-02-24T19:14:03.408Z,36.4
2023-02-24T19:16:31.667Z,35.9
2023-02-24T19:18:59.925Z,36.2
2023-02-24T19:21:28.183Z,31.2
2023-02-24T19:23:56.435Z,34.3
2023-02-24T19:26:24.698Z,35.8
2023-02-24T19:31:21.207Z,34.8
2023-02-24T19:33:49.472Z,27.7
2023-02-24T19:36:17.726Z,31.9
2023-02-24T19:37:32.454Z,33.1
2023-02-24T19:38:46.000Z,32
2023-02-24T19:41:14.262Z,29.2
2023-02-24T19:43:42.512Z,32.7
2023-02-24T19:46:10.774Z,28.4
2023-02-24T19:48:39.026Z,32.8
2023-02-24T19:51:07.292Z,24.4
2023-02-24T19:53:35.544Z,21.6
2023-02-24T19:56:03.805Z,23.4
2023-02-24T19:58:32.058Z,28.6
2023-02-24T20:02:15.048Z,23.3
2023-02-24T20:03:28.590Z,25.2
2023-02-24T20:05:56.847Z,22.8
2023-02-24T20:08:25.104Z,21.2
2023-02-24T20:10:53.360Z,20.5
2023-02-24T20:13:21.617Z,23.4
2023-02-24T20:15:49.881Z,20.3
2023-02-24T20:18:18.129Z,18.5
2023-02-24T20:20:46.390Z,16.6
2023-02-24T20:23:14.647Z,13.5
2023-02-24T20:25:42.899Z,15.1
2023-02-24T20:26:57.641Z,18.8
2023-02-24T20:28:11.176Z,18.4
2023-02-24T20:33:07.694Z,19.8
2023-02-24T20:35:35.950Z,17.5
2023-02-24T20:38:04.208Z,15.9
2023-02-24T20:40:32.459Z,15.6
2023-02-24T20:43:00.721Z,16.1
2023-02-24T20:45:28.974Z,22.3
2023-02-24T20:47:57.232Z,18.8
2023-02-24T20:50:25.488Z,18.8
2023-02-24T20:51:40.224Z,19.1
2023-02-24T20:52:53.767Z,14.9
2023-02-24T20:55:22.020Z,15.1
2023-02-24T20:57:50.276Z,13.3
2023-02-24T21:00:18.532Z,16.3
2023-02-24T21:05:15.052Z,15.2
2023-02-24T21:07:43.304Z,16.2
2023-02-24T21:10:11.563Z,12.2
2023-02-24T21:12:39.815Z,8.2
2023-02-24T21:15:08.077Z,10.5
2023-02-24T21:16:22.807Z,8.1
2023-02-24T21:17:36.355Z,8
2023-02-24T21:20:04.609Z,11.3
2023-02-24T21:22:32.871Z,7.7
2023-02-24T21:25:01.121Z,9.8
2023-02-24T21:27:29.383Z,13.4
2023-02-24T21:29:57.638Z,10.8
2023-02-24T21:32:25.896Z,13.4
2023-02-24T21:37:22.405Z,8.4
2023-02-24T21:39:50.660Z,8.2
2023-02-24T21:41:05.400Z,5.8
2023-02-24T21:42:18.941Z,4.5
2023-02-24T21:44:47.193Z,5.4
2023-02-24T21:47:15.459Z,5.8
2023-02-24T21:49:43.707Z,3.8
2023-02-24T21:52:11.967Z,3.1
2023-02-24T21:54:40.224Z,3.4
2023-02-24T21:57:08.479Z,5.1
2023-02-24T21:59:36.741Z,4.5
2023-02-24T22:02:04.994Z,2.6
2023-02-24T22:04:33.260Z,3.1
2023-02-24T22:07:01.514Z,3.2
2023-02-24T22:09:29.772Z,5.3
2023-02-24T22:11:58.028Z,3.1
2023-02-24T22:14:26.282Z,3.7
2023-02-24T22:16:54.548Z,4.6
2023-02-24T22:19:22.801Z,3
2023-02-24T22:21:51.058Z,3.4
2023-02-24T22:24:19.316Z,3
2023-02-24T22:26:47.573Z,3
2023-02-24T22:29:15.834Z,2.8
2023-02-24T22:30:30.575Z,3.6
2023-02-24T22:31:44.124Z,2.7
2023-02-24T22:34:12.381Z,3.2
2023-02-24T22:39:08.894Z,2.3
2023-02-24T22:41:37.149Z,2.2
2023-02-24T22:44:05.410Z,4.2
2023-02-24T22:46:33.671Z,3.1
2023-02-24T22:49:01.924Z,2.6
2023-02-24T22:51:30.187Z,4.7
2023-02-24T22:53:58.444Z,2.6
2023-02-24T22:55:13.177Z,4.4
2023-02-24T22:56:26.715Z,5.1
2023-02-24T22:58:54.973Z,5.4
2023-02-24T23:01:23.233Z,3
2023-02-24T23:03:51.493Z,4.1
2023-02-24T23:06:19.747Z,3.2
2023-02-24T23:11:16.261Z,3.5
2023-02-24T23:13:44.517Z,4.4
2023-02-24T23:16:12.777Z,6
2023-02-24T23:18:41.037Z,3.9
2023-02-24T23:19:55.766Z,3
2023-02-24T23:21:09.314Z,5.7
2023-02-24T23:23:37.570Z,5
2023-02-24T23:26:05.830Z,3.7
2023-02-24T23:28:34.086Z,4.8
2023-02-24T23:31:02.342Z,3.7
2023-02-24T23:33:30.595Z,4.6
2023-02-24T23:35:58.854Z,5.3
2023-02-24T23:38:27.116Z,3.5
2023-02-24T23:43:23.631Z,3.5
2023-02-24T23:44:38.357Z,2.7
2023-02-24T23:45:51.905Z,4.2
2023-02-24T23:48:20.159Z,5.7
2023-02-24T23:50:48.415Z,5.1
2023-02-24T23:53:16.678Z,5.3
2023-02-24T23:55:44.938Z,4.4
2023-02-24T23:58:13.196Z,4.4
